sensor_id;sensor_type;location;lat;lon;timestamp;P1;durP1;ratioP1;P2;durP2;ratioP2
13891;SDS011;7016;48.172;8.058;2023-03-07T00:00:51;23.67;;;12.93;;
13891;SDS011;7016;48.172;8.058;2023-03-07T00:03:16;25.40;;;13.38;;
13891;SDS011;7016;48.172;8.058;2023-03-07T00:05:44;25.20;;;13.50;;
13891;SDS011;7016;48.172;8.058;2023-03-07T00:08:10;23.33;;;12.90;;
13891;SDS011;7016;48.172;8.058;2023-03-07T00:10:36;24.10;;;12.90;;
13891;SDS011;7016;48.172;8.058;2023-03-07T00:13:02;22.55;;;13.00;;
13891;SDS011;7016;48.172;8.058;2023-03-07T00:15:28;22.75;;;12.52;;
13891;SDS011;7016;48.172;8.058;2023-03-07T00:17:54;29.58;;;12.90;;
13891;SDS011;7016;48.172;8.058;2023-03-07T00:20:20;23.92;;;13.23;;
13891;SDS011;7016;48.172;8.058;2023-03-07T00:22:46;23.50;;;12.13;;
13891;SDS011;7016;48.172;8.058;2023-03-07T00:25:12;24.98;;;12.68;;
13891;SDS011;7016;48.172;8.058;2023-03-07T00:27:42;25.23;;;13.73;;
13891;SDS011;7016;48.172;8.058;2023-03-07T00:30:08;27.15;;;12.80;;
13891;SDS011;7016;48.172;8.058;2023-03-07T00:32:36;21.63;;;12.40;;
13891;SDS011;7016;48.172;8.058;2023-03-07T00:35:02;23.42;;;12.48;;
13891;SDS011;7016;48.172;8.058;2023-03-07T00:37:27;27.90;;;13.75;;
13891;SDS011;7016;48.172;8.058;2023-03-07T00:39:55;25.45;;;12.48;;
13891;SDS011;7016;48.172;8.058;2023-03-07T00:42:20;23.40;;;13.02;;
13891;SDS011;7016;48.172;8.058;2023-03-07T00:44:46;22.70;;;13.05;;
13891;SDS011;7016;48.172;8.058;2023-03-07T00:47:12;24.20;;;13.07;;
13891;SDS011;7016;48.172;8.058;2023-03-07T00:49:37;23.02;;;13.23;;
13891;SDS011;7016;48.172;8.058;2023-03-07T00:52:03;25.73;;;14.13;;
13891;SDS011;7016;48.172;8.058;2023-03-07T00:54:29;26.92;;;12.95;;
13891;SDS011;7016;48.172;8.058;2023-03-07T00:56:55;24.90;;;13.10;;
13891;SDS011;7016;48.172;8.058;2023-03-07T00:59:20;25.80;;;14.45;;
13891;SDS011;7016;48.172;8.058;2023-03-07T01:01:46;24.35;;;12.45;;
13891;SDS011;7016;48.172;8.058;2023-03-07T01:04:12;22.83;;;13.45;;
13891;SDS011;7016;48.172;8.058;2023-03-07T01:06:37;24.55;;;13.20;;
13891;SDS011;7016;48.172;8.058;2023-03-07T01:09:04;22.15;;;12.20;;
13891;SDS011;7016;48.172;8.058;2023-03-07T01:11:31;23.25;;;13.35;;
13891;SDS011;7016;48.172;8.058;2023-03-07T01:13:59;24.85;;;13.55;;
13891;SDS011;7016;48.172;8.058;2023-03-07T01:16:27;24.60;;;13.10;;
13891;SDS011;7016;48.172;8.058;2023-03-07T01:19:04;26.15;;;13.90;;
13891;SDS011;7016;48.172;8.058;2023-03-07T01:21:32;24.45;;;13.55;;
13891;SDS011;7016;48.172;8.058;2023-03-07T01:24:06;24.15;;;13.18;;
13891;SDS011;7016;48.172;8.058;2023-03-07T01:26:34;26.42;;;14.13;;
13891;SDS011;7016;48.172;8.058;2023-03-07T01:29:02;23.50;;;12.15;;
13891;SDS011;7016;48.172;8.058;2023-03-07T01:31:28;27.27;;;13.23;;
13891;SDS011;7016;48.172;8.058;2023-03-07T01:33:56;25.63;;;12.85;;
13891;SDS011;7016;48.172;8.058;2023-03-07T01:36:23;26.17;;;13.10;;
13891;SDS011;7016;48.172;8.058;2023-03-07T01:38:54;22.67;;;13.00;;
13891;SDS011;7016;48.172;8.058;2023-03-07T01:41:21;25.52;;;12.98;;
13891;SDS011;7016;48.172;8.058;2023-03-07T01:43:48;22.77;;;13.20;;
13891;SDS011;7016;48.172;8.058;2023-03-07T01:51:19;23.23;;;13.23;;
13891;SDS011;7016;48.172;8.058;2023-03-07T01:53:46;25.05;;;13.60;;
13891;SDS011;7016;48.172;8.058;2023-03-07T01:56:13;24.48;;;12.48;;
13891;SDS011;7016;48.172;8.058;2023-03-07T01:58:39;23.73;;;13.10;;
13891;SDS011;7016;48.172;8.058;2023-03-07T02:01:06;23.70;;;12.50;;
13891;SDS011;7016;48.172;8.058;2023-03-07T02:03:36;23.83;;;13.60;;
13891;SDS011;7016;48.172;8.058;2023-03-07T02:06:14;27.65;;;13.27;;
13891;SDS011;7016;48.172;8.058;2023-03-07T02:08:40;24.38;;;13.50;;
13891;SDS011;7016;48.172;8.058;2023-03-07T02:11:08;29.55;;;14.15;;
13891;SDS011;7016;48.172;8.058;2023-03-07T02:13:35;22.70;;;13.38;;
13891;SDS011;7016;48.172;8.058;2023-03-07T02:16:01;21.98;;;13.20;;
13891;SDS011;7016;48.172;8.058;2023-03-07T02:18:29;24.70;;;13.25;;
13891;SDS011;7016;48.172;8.058;2023-03-07T02:28:55;24.15;;;12.88;;
13891;SDS011;7016;48.172;8.058;2023-03-07T02:31:25;21.40;;;12.88;;
13891;SDS011;7016;48.172;8.058;2023-03-07T02:33:51;23.25;;;12.82;;
13891;SDS011;7016;48.172;8.058;2023-03-07T02:36:24;26.85;;;12.38;;
13891;SDS011;7016;48.172;8.058;2023-03-07T02:38:54;22.27;;;12.73;;
13891;SDS011;7016;48.172;8.058;2023-03-07T02:41:23;23.17;;;12.15;;
13891;SDS011;7016;48.172;8.058;2023-03-07T02:43:51;24.58;;;12.45;;
13891;SDS011;7016;48.172;8.058;2023-03-07T02:46:16;26.88;;;12.93;;
13891;SDS011;7016;48.172;8.058;2023-03-07T02:48:43;23.67;;;13.50;;
13891;SDS011;7016;48.172;8.058;2023-03-07T02:51:09;24.75;;;13.05;;
13891;SDS011;7016;48.172;8.058;2023-03-07T02:53:36;22.73;;;12.85;;
13891;SDS011;7016;48.172;8.058;2023-03-07T02:56:01;21.70;;;12.05;;
13891;SDS011;7016;48.172;8.058;2023-03-07T02:58:28;23.92;;;12.85;;
13891;SDS011;7016;48.172;8.058;2023-03-07T03:00:54;25.60;;;12.77;;
13891;SDS011;7016;48.172;8.058;2023-03-07T03:03:19;21.85;;;12.98;;
13891;SDS011;7016;48.172;8.058;2023-03-07T03:05:45;23.20;;;13.05;;
13891;SDS011;7016;48.172;8.058;2023-03-07T03:08:11;27.77;;;13.68;;
13891;SDS011;7016;48.172;8.058;2023-03-07T03:10:37;24.83;;;12.77;;
13891;SDS011;7016;48.172;8.058;2023-03-07T03:13:03;24.27;;;12.27;;
13891;SDS011;7016;48.172;8.058;2023-03-07T03:15:29;24.13;;;12.35;;
13891;SDS011;7016;48.172;8.058;2023-03-07T03:17:55;21.80;;;12.05;;
13891;SDS011;7016;48.172;8.058;2023-03-07T03:20:21;21.48;;;11.95;;
13891;SDS011;7016;48.172;8.058;2023-03-07T03:22:47;21.75;;;11.65;;
13891;SDS011;7016;48.172;8.058;2023-03-07T03:25:16;22.88;;;11.40;;
13891;SDS011;7016;48.172;8.058;2023-03-07T03:27:42;24.60;;;12.40;;
13891;SDS011;7016;48.172;8.058;2023-03-07T03:30:09;19.98;;;11.95;;
13891;SDS011;7016;48.172;8.058;2023-03-07T03:32:36;24.08;;;12.60;;
13891;SDS011;7016;48.172;8.058;2023-03-07T03:35:03;22.55;;;11.90;;
13891;SDS011;7016;48.172;8.058;2023-03-07T03:37:30;22.88;;;12.43;;
13891;SDS011;7016;48.172;8.058;2023-03-07T03:39:56;18.52;;;11.07;;
13891;SDS011;7016;48.172;8.058;2023-03-07T03:42:22;24.02;;;11.82;;
13891;SDS011;7016;48.172;8.058;2023-03-07T03:44:48;21.23;;;12.05;;
13891;SDS011;7016;48.172;8.058;2023-03-07T03:47:14;21.52;;;12.10;;
13891;SDS011;7016;48.172;8.058;2023-03-07T03:49:40;23.55;;;11.80;;
13891;SDS011;7016;48.172;8.058;2023-03-07T03:52:06;20.13;;;11.88;;
13891;SDS011;7016;48.172;8.058;2023-03-07T03:54:31;22.98;;;11.93;;
13891;SDS011;7016;48.172;8.058;2023-03-07T03:56:57;20.20;;;11.45;;
13891;SDS011;7016;48.172;8.058;2023-03-07T03:59:23;23.63;;;12.02;;
13891;SDS011;7016;48.172;8.058;2023-03-07T04:01:49;19.95;;;11.18;;
13891;SDS011;7016;48.172;8.058;2023-03-07T04:04:15;24.48;;;11.95;;
13891;SDS011;7016;48.172;8.058;2023-03-07T04:06:41;22.17;;;11.95;;
13891;SDS011;7016;48.172;8.058;2023-03-07T04:09:07;20.90;;;11.60;;
13891;SDS011;7016;48.172;8.058;2023-03-07T04:11:34;21.58;;;11.43;;
13891;SDS011;7016;48.172;8.058;2023-03-07T04:14:00;19.05;;;11.40;;
13891;SDS011;7016;48.172;8.058;2023-03-07T04:16:26;23.17;;;11.63;;
13891;SDS011;7016;48.172;8.058;2023-03-07T04:18:52;20.25;;;11.55;;
13891;SDS011;7016;48.172;8.058;2023-03-07T04:21:19;24.55;;;12.18;;
13891;SDS011;7016;48.172;8.058;2023-03-07T04:23:46;24.88;;;12.15;;
13891;SDS011;7016;48.172;8.058;2023-03-07T04:26:13;22.27;;;11.63;;
13891;SDS011;7016;48.172;8.058;2023-03-07T04:28:40;21.75;;;12.00;;
13891;SDS011;7016;48.172;8.058;2023-03-07T04:31:20;24.58;;;12.48;;
13891;SDS011;7016;48.172;8.058;2023-03-07T04:33:47;22.42;;;11.70;;
13891;SDS011;7016;48.172;8.058;2023-03-07T04:36:13;21.27;;;11.75;;
13891;SDS011;7016;48.172;8.058;2023-03-07T04:38:43;19.65;;;11.60;;
13891;SDS011;7016;48.172;8.058;2023-03-07T04:41:11;20.70;;;11.23;;
13891;SDS011;7016;48.172;8.058;2023-03-07T04:43:38;22.98;;;11.48;;
13891;SDS011;7016;48.172;8.058;2023-03-07T04:46:05;22.00;;;11.18;;
13891;SDS011;7016;48.172;8.058;2023-03-07T04:48:32;18.33;;;11.23;;
13891;SDS011;7016;48.172;8.058;2023-03-07T04:50:59;23.80;;;12.30;;
13891;SDS011;7016;48.172;8.058;2023-03-07T04:53:24;24.80;;;12.40;;
13891;SDS011;7016;48.172;8.058;2023-03-07T04:55:55;24.25;;;12.00;;
13891;SDS011;7016;48.172;8.058;2023-03-07T05:00:51;23.42;;;11.25;;
13891;SDS011;7016;48.172;8.058;2023-03-07T05:03:17;23.23;;;10.30;;
13891;SDS011;7016;48.172;8.058;2023-03-07T05:05:42;21.95;;;11.15;;
13891;SDS011;7016;48.172;8.058;2023-03-07T05:08:08;20.67;;;11.48;;
13891;SDS011;7016;48.172;8.058;2023-03-07T05:10:34;28.15;;;11.55;;
13891;SDS011;7016;48.172;8.058;2023-03-07T05:13:01;17.73;;;10.95;;
13891;SDS011;7016;48.172;8.058;2023-03-07T05:15:27;23.27;;;11.30;;
13891;SDS011;7016;48.172;8.058;2023-03-07T05:17:53;21.10;;;10.95;;
13891;SDS011;7016;48.172;8.058;2023-03-07T05:20:19;20.58;;;11.23;;
13891;SDS011;7016;48.172;8.058;2023-03-07T05:22:45;20.33;;;11.98;;
13891;SDS011;7016;48.172;8.058;2023-03-07T05:25:11;21.50;;;10.77;;
13891;SDS011;7016;48.172;8.058;2023-03-07T05:27:37;23.27;;;11.90;;
13891;SDS011;7016;48.172;8.058;2023-03-07T05:30:03;21.23;;;11.35;;
13891;SDS011;7016;48.172;8.058;2023-03-07T05:32:30;19.35;;;11.02;;
13891;SDS011;7016;48.172;8.058;2023-03-07T05:34:56;21.42;;;11.60;;
13891;SDS011;7016;48.172;8.058;2023-03-07T05:37:21;17.98;;;10.73;;
13891;SDS011;7016;48.172;8.058;2023-03-07T05:39:47;21.58;;;11.07;;
13891;SDS011;7016;48.172;8.058;2023-03-07T05:42:13;18.40;;;10.18;;
13891;SDS011;7016;48.172;8.058;2023-03-07T05:44:40;18.73;;;10.73;;
13891;SDS011;7016;48.172;8.058;2023-03-07T05:47:06;19.50;;;11.10;;
13891;SDS011;7016;48.172;8.058;2023-03-07T05:49:32;19.80;;;11.68;;
13891;SDS011;7016;48.172;8.058;2023-03-07T05:51:58;19.27;;;10.82;;
13891;SDS011;7016;48.172;8.058;2023-03-07T05:54:23;20.25;;;11.18;;
13891;SDS011;7016;48.172;8.058;2023-03-07T05:56:49;19.27;;;10.88;;
13891;SDS011;7016;48.172;8.058;2023-03-07T05:59:15;24.52;;;11.07;;
13891;SDS011;7016;48.172;8.058;2023-03-07T06:01:41;18.88;;;11.02;;
13891;SDS011;7016;48.172;8.058;2023-03-07T06:04:07;22.35;;;10.70;;
13891;SDS011;7016;48.172;8.058;2023-03-07T06:06:33;20.92;;;11.43;;
13891;SDS011;7016;48.172;8.058;2023-03-07T06:08:59;25.05;;;11.65;;
13891;SDS011;7016;48.172;8.058;2023-03-07T06:11:26;19.05;;;11.23;;
13891;SDS011;7016;48.172;8.058;2023-03-07T06:13:51;19.90;;;11.10;;
13891;SDS011;7016;48.172;8.058;2023-03-07T06:16:17;20.23;;;11.00;;
13891;SDS011;7016;48.172;8.058;2023-03-07T06:18:43;19.42;;;11.48;;
13891;SDS011;7016;48.172;8.058;2023-03-07T06:21:09;23.48;;;11.60;;
13891;SDS011;7016;48.172;8.058;2023-03-07T06:23:37;21.45;;;12.05;;
13891;SDS011;7016;48.172;8.058;2023-03-07T06:26:03;20.38;;;11.25;;
13891;SDS011;7016;48.172;8.058;2023-03-07T06:28:29;23.48;;;11.85;;
13891;SDS011;7016;48.172;8.058;2023-03-07T06:30:55;22.77;;;11.98;;
13891;SDS011;7016;48.172;8.058;2023-03-07T06:33:21;24.20;;;12.95;;
13891;SDS011;7016;48.172;8.058;2023-03-07T06:35:46;21.63;;;12.13;;
13891;SDS011;7016;48.172;8.058;2023-03-07T06:38:13;20.65;;;11.65;;
13891;SDS011;7016;48.172;8.058;2023-03-07T06:40:39;23.50;;;12.27;;
13891;SDS011;7016;48.172;8.058;2023-03-07T06:43:05;23.42;;;12.60;;
13891;SDS011;7016;48.172;8.058;2023-03-07T06:45:31;24.60;;;12.65;;
13891;SDS011;7016;48.172;8.058;2023-03-07T06:47:57;23.13;;;12.25;;
13891;SDS011;7016;48.172;8.058;2023-03-07T06:50:23;23.98;;;12.15;;
13891;SDS011;7016;48.172;8.058;2023-03-07T06:52:49;20.00;;;12.00;;
13891;SDS011;7016;48.172;8.058;2023-03-07T06:55:16;21.63;;;12.25;;
13891;SDS011;7016;48.172;8.058;2023-03-07T06:57:43;22.45;;;13.05;;
13891;SDS011;7016;48.172;8.058;2023-03-07T07:00:09;20.98;;;11.40;;
13891;SDS011;7016;48.172;8.058;2023-03-07T07:02:35;23.35;;;12.82;;
13891;SDS011;7016;48.172;8.058;2023-03-07T07:05:01;23.65;;;12.15;;
13891;SDS011;7016;48.172;8.058;2023-03-07T07:07:27;24.63;;;12.55;;
13891;SDS011;7016;48.172;8.058;2023-03-07T07:09:53;22.85;;;11.57;;
13891;SDS011;7016;48.172;8.058;2023-03-07T07:12:18;21.33;;;11.75;;
13891;SDS011;7016;48.172;8.058;2023-03-07T07:14:44;19.23;;;11.25;;
13891;SDS011;7016;48.172;8.058;2023-03-07T07:17:10;19.42;;;10.80;;
13891;SDS011;7016;48.172;8.058;2023-03-07T07:19:36;21.27;;;11.93;;
13891;SDS011;7016;48.172;8.058;2023-03-07T07:22:02;20.63;;;11.20;;
13891;SDS011;7016;48.172;8.058;2023-03-07T07:24:28;19.88;;;10.85;;
13891;SDS011;7016;48.172;8.058;2023-03-07T07:26:54;21.13;;;11.25;;
13891;SDS011;7016;48.172;8.058;2023-03-07T07:29:20;21.13;;;11.52;;
13891;SDS011;7016;48.172;8.058;2023-03-07T07:31:46;20.27;;;10.73;;
13891;SDS011;7016;48.172;8.058;2023-03-07T07:34:13;20.02;;;10.43;;
13891;SDS011;7016;48.172;8.058;2023-03-07T07:36:39;24.48;;;11.82;;
13891;SDS011;7016;48.172;8.058;2023-03-07T07:39:05;18.48;;;10.30;;
13891;SDS011;7016;48.172;8.058;2023-03-07T07:41:32;19.63;;;10.80;;
13891;SDS011;7016;48.172;8.058;2023-03-07T07:43:58;19.13;;;10.20;;
13891;SDS011;7016;48.172;8.058;2023-03-07T07:46:24;16.05;;;9.45;;
13891;SDS011;7016;48.172;8.058;2023-03-07T07:48:52;18.00;;;10.15;;
13891;SDS011;7016;48.172;8.058;2023-03-07T07:51:18;17.80;;;9.77;;
13891;SDS011;7016;48.172;8.058;2023-03-07T07:53:44;17.58;;;9.18;;
13891;SDS011;7016;48.172;8.058;2023-03-07T07:56:10;15.57;;;8.35;;
13891;SDS011;7016;48.172;8.058;2023-03-07T07:58:36;15.48;;;9.15;;
13891;SDS011;7016;48.172;8.058;2023-03-07T08:01:18;17.83;;;9.88;;
13891;SDS011;7016;48.172;8.058;2023-03-07T08:03:45;17.40;;;9.63;;
13891;SDS011;7016;48.172;8.058;2023-03-07T08:06:11;21.67;;;10.10;;
13891;SDS011;7016;48.172;8.058;2023-03-07T08:08:38;16.02;;;9.65;;
13891;SDS011;7016;48.172;8.058;2023-03-07T08:11:04;20.20;;;9.48;;
13891;SDS011;7016;48.172;8.058;2023-03-07T08:13:30;19.20;;;10.35;;
13891;SDS011;7016;48.172;8.058;2023-03-07T08:15:55;18.17;;;9.27;;
13891;SDS011;7016;48.172;8.058;2023-03-07T08:18:21;19.67;;;10.38;;
13891;SDS011;7016;48.172;8.058;2023-03-07T08:20:47;23.75;;;11.23;;
13891;SDS011;7016;48.172;8.058;2023-03-07T08:23:12;18.77;;;10.02;;
13891;SDS011;7016;48.172;8.058;2023-03-07T08:25:38;17.10;;;9.93;;
13891;SDS011;7016;48.172;8.058;2023-03-07T08:28:04;19.02;;;10.23;;
13891;SDS011;7016;48.172;8.058;2023-03-07T08:30:31;19.63;;;11.15;;
13891;SDS011;7016;48.172;8.058;2023-03-07T08:32:58;22.33;;;10.73;;
13891;SDS011;7016;48.172;8.058;2023-03-07T08:35:25;22.65;;;11.35;;
13891;SDS011;7016;48.172;8.058;2023-03-07T08:37:52;19.20;;;10.63;;
13891;SDS011;7016;48.172;8.058;2023-03-07T08:40:26;18.00;;;9.50;;
13891;SDS011;7016;48.172;8.058;2023-03-07T08:42:53;19.58;;;10.23;;
13891;SDS011;7016;48.172;8.058;2023-03-07T08:45:20;15.10;;;9.27;;
13891;SDS011;7016;48.172;8.058;2023-03-07T08:47:46;16.60;;;8.98;;
13891;SDS011;7016;48.172;8.058;2023-03-07T08:50:12;16.05;;;9.35;;
13891;SDS011;7016;48.172;8.058;2023-03-07T08:52:38;23.67;;;13.25;;
13891;SDS011;7016;48.172;8.058;2023-03-07T08:55:03;17.90;;;9.20;;
13891;SDS011;7016;48.172;8.058;2023-03-07T08:57:29;17.15;;;9.00;;
13891;SDS011;7016;48.172;8.058;2023-03-07T08:59:55;14.30;;;8.30;;
13891;SDS011;7016;48.172;8.058;2023-03-07T09:02:21;16.02;;;8.45;;
13891;SDS011;7016;48.172;8.058;2023-03-07T09:04:47;14.63;;;8.68;;
13891;SDS011;7016;48.172;8.058;2023-03-07T09:07:12;13.52;;;8.73;;
13891;SDS011;7016;48.172;8.058;2023-03-07T09:09:38;18.75;;;8.73;;
13891;SDS011;7016;48.172;8.058;2023-03-07T09:12:04;14.98;;;8.02;;
13891;SDS011;7016;48.172;8.058;2023-03-07T09:14:30;14.30;;;8.77;;
13891;SDS011;7016;48.172;8.058;2023-03-07T09:16:55;18.17;;;11.45;;
13891;SDS011;7016;48.172;8.058;2023-03-07T09:19:21;24.05;;;9.50;;
13891;SDS011;7016;48.172;8.058;2023-03-07T09:21:47;18.92;;;9.55;;
13891;SDS011;7016;48.172;8.058;2023-03-07T09:24:14;13.98;;;8.73;;
13891;SDS011;7016;48.172;8.058;2023-03-07T09:26:39;16.92;;;9.07;;
13891;SDS011;7016;48.172;8.058;2023-03-07T09:29:05;24.92;;;13.50;;
13891;SDS011;7016;48.172;8.058;2023-03-07T09:31:31;41.85;;;13.75;;
13891;SDS011;7016;48.172;8.058;2023-03-07T09:33:57;21.52;;;10.13;;
13891;SDS011;7016;48.172;8.058;2023-03-07T09:36:23;20.42;;;10.88;;
13891;SDS011;7016;48.172;8.058;2023-03-07T09:38:49;21.70;;;10.57;;
13891;SDS011;7016;48.172;8.058;2023-03-07T09:41:26;20.58;;;10.07;;
13891;SDS011;7016;48.172;8.058;2023-03-07T09:47:10;29.55;;;16.45;;
13891;SDS011;7016;48.172;8.058;2023-03-07T09:49:19;28.30;;;16.33;;
13891;SDS011;7016;48.172;8.058;2023-03-07T09:51:51;21.70;;;10.48;;
13891;SDS011;7016;48.172;8.058;2023-03-07T09:54:25;21.42;;;10.23;;
13891;SDS011;7016;48.172;8.058;2023-03-07T09:56:59;21.13;;;12.43;;
13891;SDS011;7016;48.172;8.058;2023-03-07T09:59:37;27.65;;;11.90;;
13891;SDS011;7016;48.172;8.058;2023-03-07T10:05:07;18.40;;;10.52;;
13891;SDS011;7016;48.172;8.058;2023-03-07T10:07:42;19.75;;;10.45;;
13891;SDS011;7016;48.172;8.058;2023-03-07T10:10:16;19.83;;;10.75;;
13891;SDS011;7016;48.172;8.058;2023-03-07T10:15:31;19.30;;;10.63;;
13891;SDS011;7016;48.172;8.058;2023-03-07T10:23:35;21.13;;;11.10;;
13891;SDS011;7016;48.172;8.058;2023-03-07T10:26:28;21.00;;;10.82;;
13891;SDS011;7016;48.172;8.058;2023-03-07T10:28:59;21.58;;;12.98;;
13891;SDS011;7016;48.172;8.058;2023-03-07T10:31:35;21.40;;;11.27;;
13891;SDS011;7016;48.172;8.058;2023-03-07T10:36:56;18.63;;;10.60;;
13891;SDS011;7016;48.172;8.058;2023-03-07T10:39:32;19.17;;;9.48;;
13891;SDS011;7016;48.172;8.058;2023-03-07T10:42:11;23.60;;;11.57;;
13891;SDS011;7016;48.172;8.058;2023-03-07T10:44:39;20.77;;;10.38;;
13891;SDS011;7016;48.172;8.058;2023-03-07T10:47:07;18.23;;;10.50;;
13891;SDS011;7016;48.172;8.058;2023-03-07T10:49:44;19.55;;;11.02;;
13891;SDS011;7016;48.172;8.058;2023-03-07T10:54:43;19.75;;;10.02;;
13891;SDS011;7016;48.172;8.058;2023-03-07T10:57:13;18.65;;;10.13;;
13891;SDS011;7016;48.172;8.058;2023-03-07T10:59:43;21.02;;;9.95;;
13891;SDS011;7016;48.172;8.058;2023-03-07T11:05:00;20.05;;;9.93;;
13891;SDS011;7016;48.172;8.058;2023-03-07T11:07:28;19.13;;;10.35;;
13891;SDS011;7016;48.172;8.058;2023-03-07T11:09:59;15.77;;;9.90;;
13891;SDS011;7016;48.172;8.058;2023-03-07T11:12:45;21.17;;;10.90;;
13891;SDS011;7016;48.172;8.058;2023-03-07T11:15:19;20.70;;;9.75;;
13891;SDS011;7016;48.172;8.058;2023-03-07T11:17:48;19.23;;;11.27;;
13891;SDS011;7016;48.172;8.058;2023-03-07T11:21:00;17.83;;;10.23;;
13891;SDS011;7016;48.172;8.058;2023-03-07T11:23:19;17.42;;;10.70;;
13891;SDS011;7016;48.172;8.058;2023-03-07T11:25:49;16.02;;;9.13;;
13891;SDS011;7016;48.172;8.058;2023-03-07T11:31:27;17.70;;;9.90;;
13891;SDS011;7016;48.172;8.058;2023-03-07T11:34:04;23.40;;;9.77;;
13891;SDS011;7016;48.172;8.058;2023-03-07T11:36:35;18.30;;;10.80;;
13891;SDS011;7016;48.172;8.058;2023-03-07T11:42:20;21.35;;;9.95;;
13891;SDS011;7016;48.172;8.058;2023-03-07T11:44:52;18.20;;;9.77;;
13891;SDS011;7016;48.172;8.058;2023-03-07T11:50:21;18.73;;;9.75;;
13891;SDS011;7016;48.172;8.058;2023-03-07T11:55:55;19.67;;;9.77;;
13891;SDS011;7016;48.172;8.058;2023-03-07T11:59:00;15.90;;;9.27;;
13891;SDS011;7016;48.172;8.058;2023-03-07T12:01:51;25.55;;;12.43;;
13891;SDS011;7016;48.172;8.058;2023-03-07T12:04:44;17.17;;;9.52;;
13891;SDS011;7016;48.172;8.058;2023-03-07T12:10:21;15.57;;;9.30;;
13891;SDS011;7016;48.172;8.058;2023-03-07T12:13:31;17.30;;;9.65;;
13891;SDS011;7016;48.172;8.058;2023-03-07T12:16:10;17.40;;;9.30;;
13891;SDS011;7016;48.172;8.058;2023-03-07T12:24:05;21.20;;;10.32;;
13891;SDS011;7016;48.172;8.058;2023-03-07T12:26:55;16.17;;;9.07;;
13891;SDS011;7016;48.172;8.058;2023-03-07T12:32:15;16.60;;;8.75;;
13891;SDS011;7016;48.172;8.058;2023-03-07T12:34:56;19.00;;;9.27;;
13891;SDS011;7016;48.172;8.058;2023-03-07T12:37:34;14.15;;;7.78;;
13891;SDS011;7016;48.172;8.058;2023-03-07T12:40:28;17.00;;;8.75;;
13891;SDS011;7016;48.172;8.058;2023-03-07T12:43:20;18.67;;;8.25;;
13891;SDS011;7016;48.172;8.058;2023-03-07T12:52:13;11.70;;;7.00;;
13891;SDS011;7016;48.172;8.058;2023-03-07T12:55:04;11.43;;;7.15;;
13891;SDS011;7016;48.172;8.058;2023-03-07T12:58:05;16.05;;;7.15;;
13891;SDS011;7016;48.172;8.058;2023-03-07T13:00:46;15.80;;;7.70;;
13891;SDS011;7016;48.172;8.058;2023-03-07T13:03:32;13.82;;;6.60;;
13891;SDS011;7016;48.172;8.058;2023-03-07T13:06:12;17.85;;;7.70;;
13891;SDS011;7016;48.172;8.058;2023-03-07T13:08:43;16.48;;;7.07;;
13891;SDS011;7016;48.172;8.058;2023-03-07T13:11:15;17.67;;;7.47;;
13891;SDS011;7016;48.172;8.058;2023-03-07T13:16:12;11.85;;;7.07;;
13891;SDS011;7016;48.172;8.058;2023-03-07T13:19:49;12.52;;;6.80;;
13891;SDS011;7016;48.172;8.058;2023-03-07T13:21:58;12.65;;;6.78;;
13891;SDS011;7016;48.172;8.058;2023-03-07T13:26:58;11.63;;;6.95;;
13891;SDS011;7016;48.172;8.058;2023-03-07T13:58:42;11.85;;;6.78;;
13891;SDS011;7016;48.172;8.058;2023-03-07T14:01:17;13.40;;;7.47;;
13891;SDS011;7016;48.172;8.058;2023-03-07T14:03:46;11.30;;;7.05;;
13891;SDS011;7016;48.172;8.058;2023-03-07T14:06:17;11.23;;;6.55;;
13891;SDS011;7016;48.172;8.058;2023-03-07T14:08:45;12.43;;;7.63;;
13891;SDS011;7016;48.172;8.058;2023-03-07T14:11:48;13.35;;;7.22;;
13891;SDS011;7016;48.172;8.058;2023-03-07T14:28:58;14.48;;;7.53;;
13891;SDS011;7016;48.172;8.058;2023-03-07T14:31:37;13.25;;;7.25;;
13891;SDS011;7016;48.172;8.058;2023-03-07T14:36:43;12.85;;;6.60;;
13891;SDS011;7016;48.172;8.058;2023-03-07T14:39:20;15.23;;;7.35;;
13891;SDS011;7016;48.172;8.058;2023-03-07T14:42:05;13.23;;;7.25;;
13891;SDS011;7016;48.172;8.058;2023-03-07T14:52:43;17.15;;;8.52;;
13891;SDS011;7016;48.172;8.058;2023-03-07T14:55:14;14.57;;;8.23;;
13891;SDS011;7016;48.172;8.058;2023-03-07T14:57:48;14.00;;;8.70;;
13891;SDS011;7016;48.172;8.058;2023-03-07T15:05:18;20.27;;;9.60;;
13891;SDS011;7016;48.172;8.058;2023-03-07T15:07:48;22.83;;;9.90;;
13891;SDS011;7016;48.172;8.058;2023-03-07T15:10:19;16.92;;;10.02;;
13891;SDS011;7016;48.172;8.058;2023-03-07T15:12:49;19.17;;;9.50;;
13891;SDS011;7016;48.172;8.058;2023-03-07T15:15:39;17.50;;;9.38;;
13891;SDS011;7016;48.172;8.058;2023-03-07T15:18:14;18.98;;;10.23;;
13891;SDS011;7016;48.172;8.058;2023-03-07T15:20:41;16.67;;;9.40;;
13891;SDS011;7016;48.172;8.058;2023-03-07T15:23:12;17.77;;;9.30;;
13891;SDS011;7016;48.172;8.058;2023-03-07T15:25:48;17.15;;;9.07;;
13891;SDS011;7016;48.172;8.058;2023-03-07T15:28:20;19.45;;;9.60;;
13891;SDS011;7016;48.172;8.058;2023-03-07T15:30:51;21.67;;;10.10;;
13891;SDS011;7016;48.172;8.058;2023-03-07T15:35:44;21.30;;;9.73;;
13891;SDS011;7016;48.172;8.058;2023-03-07T15:38:16;19.20;;;10.15;;
13891;SDS011;7016;48.172;8.058;2023-03-07T15:40:46;19.13;;;9.45;;
13891;SDS011;7016;48.172;8.058;2023-03-07T15:51:19;18.73;;;10.00;;
13891;SDS011;7016;48.172;8.058;2023-03-07T15:54:03;19.52;;;10.52;;
13891;SDS011;7016;48.172;8.058;2023-03-07T15:56:40;19.27;;;9.95;;
13891;SDS011;7016;48.172;8.058;2023-03-07T15:59:16;21.00;;;10.40;;
13891;SDS011;7016;48.172;8.058;2023-03-07T16:01:55;17.27;;;9.57;;
13891;SDS011;7016;48.172;8.058;2023-03-07T16:04:35;18.52;;;9.98;;
13891;SDS011;7016;48.172;8.058;2023-03-07T16:07:02;30.15;;;10.30;;
13891;SDS011;7016;48.172;8.058;2023-03-07T16:09:28;19.73;;;9.60;;
13891;SDS011;7016;48.172;8.058;2023-03-07T16:11:54;16.33;;;9.27;;
13891;SDS011;7016;48.172;8.058;2023-03-07T16:14:21;18.08;;;8.93;;
13891;SDS011;7016;48.172;8.058;2023-03-07T16:16:49;20.23;;;9.38;;
13891;SDS011;7016;48.172;8.058;2023-03-07T16:19:23;15.90;;;8.65;;
13891;SDS011;7016;48.172;8.058;2023-03-07T16:21:49;17.75;;;9.18;;
13891;SDS011;7016;48.172;8.058;2023-03-07T16:24:15;14.90;;;8.80;;
13891;SDS011;7016;48.172;8.058;2023-03-07T16:26:41;15.32;;;8.90;;
13891;SDS011;7016;48.172;8.058;2023-03-07T16:29:18;16.65;;;8.45;;
13891;SDS011;7016;48.172;8.058;2023-03-07T16:31:46;19.38;;;9.35;;
13891;SDS011;7016;48.172;8.058;2023-03-07T16:34:15;16.52;;;8.75;;
13891;SDS011;7016;48.172;8.058;2023-03-07T16:36:43;21.40;;;9.82;;
13891;SDS011;7016;48.172;8.058;2023-03-07T16:39:09;21.52;;;8.48;;
13891;SDS011;7016;48.172;8.058;2023-03-07T16:41:35;19.00;;;8.73;;
13891;SDS011;7016;48.172;8.058;2023-03-07T16:44:03;15.73;;;8.40;;
13891;SDS011;7016;48.172;8.058;2023-03-07T16:46:29;14.02;;;8.25;;
13891;SDS011;7016;48.172;8.058;2023-03-07T16:48:55;15.68;;;9.00;;
13891;SDS011;7016;48.172;8.058;2023-03-07T16:51:22;14.63;;;8.02;;
13891;SDS011;7016;48.172;8.058;2023-03-07T16:53:49;13.63;;;7.85;;
13891;SDS011;7016;48.172;8.058;2023-03-07T16:56:25;17.73;;;8.95;;
13891;SDS011;7016;48.172;8.058;2023-03-07T16:58:55;16.33;;;8.65;;
13891;SDS011;7016;48.172;8.058;2023-03-07T17:01:22;14.80;;;8.50;;
13891;SDS011;7016;48.172;8.058;2023-03-07T17:03:47;19.92;;;8.32;;
13891;SDS011;7016;48.172;8.058;2023-03-07T17:06:14;18.40;;;8.85;;
13891;SDS011;7016;48.172;8.058;2023-03-07T17:08:41;17.45;;;8.32;;
13891;SDS011;7016;48.172;8.058;2023-03-07T17:11:20;16.63;;;8.35;;
13891;SDS011;7016;48.172;8.058;2023-03-07T17:13:49;17.02;;;9.02;;